createdAt,value
2022-09-14T00:00:58.542Z,16.30
2022-09-14T00:03:33.910Z,16.60
2022-09-14T00:06:05.052Z,16.60
2022-09-14T00:08:32.949Z,16.60
2022-09-14T00:11:03.828Z,16.60
2022-09-14T00:13:31.592Z,16.60
2022-09-14T00:16:02.543Z,16.60
2022-09-14T00:18:29.624Z,16.50
2022-09-14T00:21:00.777Z,16.50
2022-09-14T00:23:27.906Z,16.50
2022-09-14T00:25:55.043Z,17.20
2022-09-14T00:28:22.407Z,16.50
2022-09-14T00:30:49.503Z,16.50
2022-09-14T00:33:16.689Z,16.70
2022-09-14T00:35:43.786Z,16.50
2022-09-14T00:38:11.116Z,16.50
2022-09-14T00:40:39.208Z,16.50
2022-09-14T00:43:12.854Z,16.60
2022-09-14T00:45:39.942Z,16.60
2022-09-14T00:48:07.535Z,17.00
2022-09-14T00:50:34.757Z,16.60
2022-09-14T00:53:02.026Z,16.60
2022-09-14T00:55:29.126Z,16.70
2022-09-14T00:57:56.505Z,16.60
2022-09-14T01:00:25.089Z,16.60
2022-09-14T01:02:52.450Z,16.60
2022-09-14T01:05:24.361Z,16.50
2022-09-14T01:08:01.058Z,16.60
2022-09-14T01:10:28.112Z,16.60
2022-09-14T01:13:06.186Z,16.50
2022-09-14T01:15:44.376Z,16.60
2022-09-14T01:18:30.009Z,16.60
2022-09-14T01:21:00.991Z,16.60
2022-09-14T01:23:45.417Z,16.60
2022-09-14T01:26:31.327Z,16.60
2022-09-14T01:29:17.361Z,16.60
2022-09-14T01:32:16.818Z,16.60
2022-09-14T01:35:13.075Z,16.50
2022-09-14T01:37:46.026Z,16.60
2022-09-14T01:40:17.350Z,16.60
2022-09-14T01:42:46.377Z,16.60
2022-09-14T01:45:16.521Z,16.60
2022-09-14T01:47:49.265Z,16.60
2022-09-14T01:50:19.051Z,16.50
2022-09-14T01:52:50.365Z,16.20
2022-09-14T01:55:24.694Z,16.60
2022-09-14T01:58:12.164Z,16.60
2022-09-14T02:00:41.241Z,16.50
2022-09-14T02:03:28.762Z,16.50
2022-09-14T02:05:59.293Z,16.50
2022-09-14T02:08:27.984Z,16.10
2022-09-14T02:10:55.553Z,16.50
2022-09-14T02:13:22.828Z,16.50
2022-09-14T02:15:50.105Z,16.50
2022-09-14T02:18:17.416Z,16.50
2022-09-14T02:20:50.960Z,16.40
2022-09-14T02:23:18.612Z,16.30
2022-09-14T02:25:46.942Z,16.40
2022-09-14T02:28:14.374Z,16.40
2022-09-14T02:31:01.787Z,16.40
2022-09-14T02:33:47.347Z,16.40
2022-09-14T02:36:23.996Z,16.50
2022-09-14T02:39:10.478Z,16.50
2022-09-14T02:42:00.605Z,16.40
2022-09-14T02:44:43.618Z,16.50
2022-09-14T02:47:16.490Z,16.50
2022-09-14T02:49:46.690Z,16.50
2022-09-14T02:52:13.828Z,16.50
2022-09-14T02:54:57.164Z,16.40
2022-09-14T02:57:24.201Z,16.50
2022-09-14T02:59:53.499Z,17.40
2022-09-14T03:02:20.956Z,16.50
2022-09-14T03:04:48.305Z,16.40
2022-09-14T03:07:15.440Z,16.50
2022-09-14T03:09:45.350Z,16.50
2022-09-14T03:12:12.464Z,16.50
2022-09-14T03:14:39.542Z,16.50
2022-09-14T03:17:07.595Z,16.20
2022-09-14T03:19:34.686Z,16.50
2022-09-14T03:22:03.954Z,16.50
2022-09-14T03:24:31.775Z,16.50
2022-09-14T03:26:58.857Z,16.40
2022-09-14T03:29:25.990Z,16.40
2022-09-14T03:31:53.259Z,16.40
2022-09-14T03:34:21.299Z,16.40
2022-09-14T03:36:48.436Z,16.80
2022-09-14T03:39:15.501Z,16.40
2022-09-14T03:41:42.578Z,16.50
2022-09-14T03:44:10.210Z,16.50
2022-09-14T03:46:37.407Z,15.20
2022-09-14T03:49:04.619Z,16.40
2022-09-14T03:51:33.461Z,16.50
2022-09-14T03:54:00.647Z,16.50
2022-09-14T03:56:27.983Z,16.40
2022-09-14T03:58:55.236Z,16.40
2022-09-14T04:01:23.285Z,17.70
2022-09-14T04:03:50.780Z,16.40
2022-09-14T04:06:18.539Z,16.40
2022-09-14T04:08:46.207Z,16.40
2022-09-14T04:11:15.250Z,16.30
2022-09-14T04:13:42.888Z,16.30
2022-09-14T04:16:10.386Z,16.30
2022-09-14T04:18:40.805Z,16.30
2022-09-14T04:21:10.391Z,16.20
2022-09-14T04:23:51.303Z,16.20
2022-09-14T04:26:26.161Z,16.20
2022-09-14T04:28:53.942Z,16.20
2022-09-14T04:31:21.159Z,16.20
2022-09-14T04:33:50.717Z,16.20
2022-09-14T04:36:19.349Z,16.20
2022-09-14T04:38:46.554Z,16.30
2022-09-14T04:41:17.257Z,16.20
2022-09-14T04:43:45.496Z,16.20
2022-09-14T04:46:14.459Z,16.20
2022-09-14T04:48:42.358Z,16.20
2022-09-14T04:51:11.883Z,16.10
2022-09-14T04:53:39.072Z,16.20
2022-09-14T04:56:08.530Z,16.20
2022-09-14T04:58:36.605Z,16.20
2022-09-14T05:01:04.782Z,16.20
2022-09-14T05:03:31.938Z,16.20
2022-09-14T05:06:05.938Z,16.20
2022-09-14T05:08:33.353Z,16.20
2022-09-14T05:11:00.499Z,16.20
2022-09-14T05:13:27.562Z,15.60
2022-09-14T05:15:55.175Z,16.10
2022-09-14T05:18:22.320Z,16.10
2022-09-14T05:20:49.984Z,16.20
2022-09-14T05:23:17.094Z,16.20
2022-09-14T05:25:44.218Z,16.10
2022-09-14T05:28:11.723Z,16.10
2022-09-14T05:30:41.830Z,16.10
2022-09-14T05:33:08.930Z,17.00
2022-09-14T05:35:36.053Z,16.10
2022-09-14T05:38:03.647Z,16.10
2022-09-14T05:40:31.168Z,16.10
2022-09-14T05:42:58.375Z,16.20
2022-09-14T05:45:25.572Z,16.10
2022-09-14T05:47:52.671Z,16.20
2022-09-14T05:50:20.051Z,16.10
2022-09-14T05:52:49.114Z,16.10
2022-09-14T05:55:16.241Z,16.10
2022-09-14T05:57:43.391Z,16.10
2022-09-14T06:00:10.800Z,16.10
2022-09-14T06:02:38.557Z,16.10
2022-09-14T06:05:06.126Z,16.20
2022-09-14T06:07:33.240Z,16.20
2022-09-14T06:10:00.542Z,16.20
2022-09-14T06:12:28.361Z,16.10
2022-09-14T06:14:55.452Z,16.20
2022-09-14T06:17:22.567Z,16.20
2022-09-14T06:19:49.840Z,16.20
2022-09-14T06:22:17.000Z,16.20
2022-09-14T06:24:45.409Z,16.20
2022-09-14T06:27:12.680Z,16.20
2022-09-14T06:29:39.769Z,16.20
2022-09-14T06:32:07.847Z,16.20
2022-09-14T06:34:34.980Z,16.20
2022-09-14T06:37:03.032Z,16.20
2022-09-14T06:39:32.126Z,16.20
2022-09-14T06:42:00.781Z,16.20
2022-09-14T06:44:27.917Z,16.30
2022-09-14T06:46:54.978Z,16.20
2022-09-14T06:49:23.478Z,16.20
2022-09-14T06:51:50.900Z,16.30
2022-09-14T06:54:19.062Z,16.20
2022-09-14T06:56:46.614Z,16.30
2022-09-14T06:59:15.319Z,16.30
2022-09-14T07:01:43.181Z,16.30
2022-09-14T07:04:10.343Z,16.30
2022-09-14T07:06:42.198Z,16.30
2022-09-14T07:09:09.795Z,16.30
2022-09-14T07:11:37.070Z,16.40
2022-09-14T07:14:04.651Z,16.30
2022-09-14T07:16:32.393Z,16.30
2022-09-14T07:19:01.901Z,16.40
2022-09-14T07:21:30.692Z,16.40
2022-09-14T07:23:58.221Z,16.40
2022-09-14T07:26:26.759Z,16.30
2022-09-14T07:28:56.363Z,16.30
2022-09-14T07:31:27.261Z,16.40
2022-09-14T07:33:55.470Z,16.40
2022-09-14T07:36:23.480Z,16.30
2022-09-14T07:38:53.168Z,16.30
2022-09-14T07:41:24.619Z,16.30
2022-09-14T07:43:53.904Z,16.30
2022-09-14T07:46:21.911Z,16.30
2022-09-14T07:48:50.096Z,16.30
2022-09-14T07:51:17.849Z,16.20
2022-09-14T07:53:46.179Z,16.30
2022-09-14T07:56:14.367Z,16.30
2022-09-14T07:58:42.201Z,16.30
2022-09-14T08:01:12.107Z,16.40
2022-09-14T08:03:40.504Z,17.00
2022-09-14T08:06:13.140Z,16.50
2022-09-14T08:08:42.085Z,16.60
2022-09-14T08:11:12.120Z,16.60
2022-09-14T08:13:42.030Z,16.60
2022-09-14T08:16:09.636Z,16.70
2022-09-14T08:18:37.382Z,16.70
2022-09-14T08:21:05.495Z,16.70
2022-09-14T08:23:35.250Z,16.70
2022-09-14T08:26:06.234Z,16.70
2022-09-14T08:28:36.674Z,16.80
2022-09-14T08:31:08.021Z,16.70
2022-09-14T08:33:36.871Z,16.80
2022-09-14T08:36:04.654Z,15.40
2022-09-14T08:38:31.836Z,16.80
2022-09-14T08:41:01.439Z,17.00
2022-09-14T08:43:29.255Z,16.90
2022-09-14T08:46:01.992Z,16.90
2022-09-14T08:48:35.035Z,17.00
2022-09-14T08:51:03.614Z,17.00
2022-09-14T08:53:30.979Z,17.00
2022-09-14T08:56:00.762Z,16.80
2022-09-14T08:58:47.596Z,17.10
2022-09-14T09:01:21.824Z,17.10
2022-09-14T09:03:49.325Z,17.10
2022-09-14T09:06:25.093Z,17.20
2022-09-14T09:08:56.196Z,17.10
2022-09-14T09:11:26.241Z,17.20
2022-09-14T09:13:53.769Z,17.70
2022-09-14T09:16:23.255Z,17.30
2022-09-14T09:18:53.701Z,17.30
2022-09-14T09:21:40.024Z,17.30
2022-09-14T09:24:25.955Z,17.30
2022-09-14T09:26:53.339Z,17.30
2022-09-14T09:29:20.805Z,17.30
2022-09-14T09:31:52.998Z,17.30
2022-09-14T09:34:30.046Z,17.30
2022-09-14T09:36:57.208Z,17.20
2022-09-14T09:39:24.482Z,17.40
2022-09-14T09:41:51.568Z,17.30
2022-09-14T09:44:18.681Z,17.30
2022-09-14T09:46:48.511Z,17.30
2022-09-14T09:49:35.903Z,17.30
2022-09-14T09:52:11.347Z,17.30
2022-09-14T09:54:39.872Z,17.30
2022-09-14T09:57:17.822Z,17.30
2022-09-14T09:59:46.879Z,17.20
2022-09-14T10:02:26.592Z,17.20
2022-09-14T10:05:01.223Z,17.20
2022-09-14T10:07:29.658Z,17.20
2022-09-14T10:10:00.864Z,17.70
2022-09-14T10:12:28.977Z,17.20
2022-09-14T10:15:07.914Z,17.30
2022-09-14T10:17:35.075Z,18.00
2022-09-14T10:20:02.525Z,17.30
2022-09-14T10:22:36.196Z,17.30
2022-09-14T10:25:13.215Z,17.80
2022-09-14T10:27:50.590Z,17.40
2022-09-14T10:30:22.769Z,17.30
2022-09-14T10:32:59.749Z,17.40
2022-09-14T10:35:36.042Z,17.40
2022-09-14T10:38:22.531Z,17.40
2022-09-14T10:40:52.667Z,17.40
2022-09-14T10:43:28.991Z,17.40
2022-09-14T10:45:59.119Z,17.40
2022-09-14T10:48:55.989Z,17.40
2022-09-14T10:51:31.154Z,17.40
2022-09-14T10:54:07.497Z,17.40
2022-09-14T10:56:46.245Z,17.40
2022-09-14T10:59:22.723Z,17.50
2022-09-14T11:02:13.230Z,17.40
2022-09-14T11:04:49.409Z,17.40
2022-09-14T11:07:16.753Z,17.50
2022-09-14T11:09:54.101Z,17.50
2022-09-14T11:12:26.476Z,17.60
2022-09-14T11:14:53.682Z,17.60
2022-09-14T11:17:21.755Z,17.70
2022-09-14T11:20:07.175Z,17.80
2022-09-14T11:22:34.458Z,17.90
2022-09-14T11:25:20.526Z,17.90
2022-09-14T11:28:08.149Z,18.00
2022-09-14T11:30:44.291Z,18.10
2022-09-14T11:33:19.181Z,18.10
2022-09-14T11:35:48.452Z,18.20
2022-09-14T11:38:23.617Z,18.30
2022-09-14T11:40:50.695Z,18.40
2022-09-14T11:43:23.507Z,18.60
2022-09-14T11:45:50.595Z,18.60
2022-09-14T11:51:14.963Z,18.80
2022-09-14T11:53:43.301Z,18.90
2022-09-14T11:56:23.346Z,19.00
2022-09-14T11:58:50.851Z,19.00
2022-09-14T12:01:30.037Z,19.10
2022-09-14T12:03:57.451Z,19.20
2022-09-14T12:06:33.706Z,19.20
2022-09-14T12:09:21.539Z,19.30
2022-09-14T12:11:49.205Z,19.40
2022-09-14T12:14:28.767Z,19.30
2022-09-14T12:17:35.631Z,19.30
2022-09-14T12:20:21.531Z,19.30
2022-09-14T12:22:50.294Z,19.20
2022-09-14T12:25:19.196Z,19.10
2022-09-14T12:27:47.932Z,19.00
2022-09-14T12:30:40.523Z,19.00
2022-09-14T12:33:26.570Z,19.00
2022-09-14T12:35:53.699Z,18.90
2022-09-14T12:38:30.084Z,18.90
2022-09-14T12:41:00.333Z,18.90
2022-09-14T12:43:33.410Z,19.00
2022-09-14T12:46:03.548Z,19.00
2022-09-14T12:48:49.335Z,19.00
2022-09-14T12:51:19.857Z,19.00
2022-09-14T12:53:50.212Z,19.00
2022-09-14T12:56:23.428Z,18.40
2022-09-14T12:58:56.695Z,19.10
2022-09-14T13:01:29.185Z,19.10
2022-09-14T13:03:57.432Z,19.10
2022-09-14T13:06:35.032Z,19.20
2022-09-14T13:09:06.252Z,19.20
2022-09-14T13:11:38.980Z,19.20
2022-09-14T13:14:07.058Z,19.20
2022-09-14T13:16:34.355Z,19.20
2022-09-14T13:19:02.939Z,19.20
2022-09-14T13:21:30.276Z,19.20
2022-09-14T13:23:57.526Z,19.10
2022-09-14T13:26:26.432Z,19.10
2022-09-14T13:28:54.797Z,19.20
2022-09-14T13:31:27.971Z,19.00
2022-09-14T13:33:55.405Z,19.00
2022-09-14T13:36:25.329Z,19.00
2022-09-14T13:38:53.330Z,19.10
2022-09-14T13:41:22.960Z,19.20
2022-09-14T13:43:52.409Z,19.40
2022-09-14T13:46:20.805Z,19.50
2022-09-14T13:48:48.385Z,19.70
2022-09-14T13:51:16.649Z,19.70
2022-09-14T13:53:43.768Z,19.80
2022-09-14T13:56:20.035Z,19.80
2022-09-14T13:58:48.303Z,19.70
2022-09-14T14:01:25.899Z,19.70
2022-09-14T14:03:53.211Z,19.70
2022-09-14T14:06:30.852Z,19.70
2022-09-14T14:09:08.225Z,19.70
2022-09-14T14:11:40.938Z,19.60
2022-09-14T14:14:17.157Z,19.60
2022-09-14T14:17:03.021Z,20.20
2022-09-14T14:19:31.090Z,19.60
2022-09-14T14:22:16.442Z,19.60
2022-09-14T14:25:11.750Z,19.60
2022-09-14T14:27:34.498Z,20.30
2022-09-14T14:30:12.144Z,19.60
2022-09-14T14:32:39.250Z,19.60
2022-09-14T14:35:17.391Z,19.60
2022-09-14T14:37:44.620Z,19.60
2022-09-14T14:40:12.673Z,19.50
2022-09-14T14:42:40.628Z,19.50
2022-09-14T14:45:12.958Z,19.50
2022-09-14T14:47:40.075Z,19.40
2022-09-14T14:50:13.348Z,19.30
2022-09-14T14:52:40.424Z,19.30
2022-09-14T14:55:08.791Z,19.40
2022-09-14T14:57:37.301Z,19.40
2022-09-14T15:00:06.018Z,19.40
2022-09-14T15:02:33.133Z,19.40
2022-09-14T15:05:00.215Z,19.40
2022-09-14T15:07:29.339Z,19.40
2022-09-14T15:09:59.388Z,19.40
2022-09-14T15:12:26.689Z,19.40
2022-09-14T15:14:53.745Z,19.40
2022-09-14T15:17:20.850Z,19.40
2022-09-14T15:19:47.900Z,19.40
2022-09-14T15:22:15.030Z,19.40
2022-09-14T15:24:42.114Z,19.40
2022-09-14T15:27:09.224Z,19.40
2022-09-14T15:29:37.262Z,19.40
2022-09-14T15:32:04.469Z,19.40
2022-09-14T15:34:31.780Z,19.40
2022-09-14T15:36:59.028Z,19.40
2022-09-14T15:39:27.020Z,19.30
2022-09-14T15:41:54.490Z,19.30
2022-09-14T15:44:22.071Z,19.40
2022-09-14T15:46:49.168Z,19.30
2022-09-14T15:49:23.702Z,19.10
2022-09-14T15:51:52.027Z,19.40
2022-09-14T15:54:23.053Z,19.40
2022-09-14T15:56:51.264Z,19.40
2022-09-14T15:59:18.954Z,19.40
2022-09-14T16:01:47.148Z,19.40
2022-09-14T16:04:15.453Z,19.40
2022-09-14T16:06:43.394Z,20.50
2022-09-14T16:09:11.157Z,19.40
2022-09-14T16:11:38.974Z,19.40
2022-09-14T16:14:08.050Z,19.40
2022-09-14T16:16:35.700Z,19.40
2022-09-14T16:19:07.580Z,19.60
2022-09-14T16:21:34.734Z,19.40
2022-09-14T16:24:02.870Z,19.40
2022-09-14T16:26:32.209Z,19.30
2022-09-14T16:28:59.793Z,19.40
2022-09-14T16:31:29.303Z,19.40
2022-09-14T16:33:57.587Z,19.40
2022-09-14T16:36:27.040Z,19.30
2022-09-14T16:38:58.052Z,19.30
2022-09-14T16:41:25.709Z,19.30
2022-09-14T16:44:00.013Z,19.20
2022-09-14T16:46:27.958Z,19.30
2022-09-14T16:48:55.457Z,19.30
2022-09-14T16:51:23.877Z,19.20
2022-09-14T16:53:51.764Z,19.30
2022-09-14T16:56:20.181Z,19.20
2022-09-14T16:58:48.472Z,19.20
2022-09-14T17:01:16.974Z,19.70
2022-09-14T17:03:44.954Z,19.20
2022-09-14T17:06:14.241Z,19.20
2022-09-14T17:08:43.762Z,19.20
2022-09-14T17:11:12.286Z,19.20
2022-09-14T17:13:39.721Z,19.10
2022-09-14T17:16:08.022Z,19.20
2022-09-14T17:18:36.464Z,19.10
2022-09-14T17:21:04.776Z,19.20
2022-09-14T17:23:32.224Z,19.10
2022-09-14T17:25:59.597Z,19.10
2022-09-14T17:28:28.598Z,19.10
2022-09-14T17:30:56.837Z,18.20
2022-09-14T17:33:24.562Z,19.00
2022-09-14T17:35:53.022Z,19.00
2022-09-14T17:38:21.592Z,19.00
2022-09-14T17:40:49.413Z,19.00
2022-09-14T17:43:16.716Z,19.00
2022-09-14T17:45:53.946Z,18.90
2022-09-14T17:48:21.941Z,18.90
2022-09-14T17:50:49.841Z,18.90
2022-09-14T17:53:17.098Z,18.90
2022-09-14T17:55:44.192Z,18.90
2022-09-14T17:58:11.341Z,18.80
2022-09-14T18:00:38.463Z,18.80
2022-09-14T18:03:06.495Z,18.80
2022-09-14T18:05:33.640Z,18.80
2022-09-14T18:08:00.937Z,18.70
2022-09-14T18:10:28.258Z,18.70
2022-09-14T18:12:55.456Z,18.60
2022-09-14T18:15:22.790Z,18.60
2022-09-14T18:17:50.833Z,18.60
2022-09-14T18:20:18.596Z,18.60
2022-09-14T18:22:45.740Z,18.50
2022-09-14T18:25:12.939Z,18.50
2022-09-14T18:27:40.092Z,18.50
2022-09-14T18:30:07.711Z,18.50
2022-09-14T18:32:35.131Z,18.50
2022-09-14T18:35:04.020Z,18.50
2022-09-14T18:37:31.374Z,18.40
2022-09-14T18:39:58.678Z,18.40
2022-09-14T18:42:25.857Z,18.70
2022-09-14T18:44:55.807Z,18.40
2022-09-14T18:47:22.987Z,18.30
2022-09-14T18:49:50.239Z,18.30
2022-09-14T18:52:17.908Z,18.20
2022-09-14T18:54:45.583Z,18.20
2022-09-14T18:57:14.689Z,18.10
2022-09-14T18:59:41.891Z,18.00
2022-09-14T19:02:10.960Z,18.10
2022-09-14T19:04:38.263Z,18.10
2022-09-14T19:07:05.809Z,18.10
2022-09-14T19:09:33.158Z,18.10
2022-09-14T19:12:00.716Z,18.10
2022-09-14T19:14:27.971Z,18.10
2022-09-14T19:16:57.144Z,18.10
2022-09-14T19:19:26.274Z,18.80
2022-09-14T19:21:54.365Z,18.10
2022-09-14T19:24:23.063Z,17.40
2022-09-14T19:26:51.300Z,18.00
2022-09-14T19:29:21.176Z,18.00
2022-09-14T19:31:51.789Z,18.00
2022-09-14T19:34:20.245Z,18.00
2022-09-14T19:36:47.677Z,18.00
2022-09-14T19:39:15.514Z,17.60
2022-09-14T19:41:42.682Z,17.90
2022-09-14T19:44:10.888Z,17.90
2022-09-14T19:46:39.809Z,17.90
2022-09-14T19:49:17.604Z,17.90
2022-09-14T19:51:45.526Z,17.90
2022-09-14T19:54:13.138Z,17.80
2022-09-14T19:56:40.622Z,17.80
2022-09-14T19:59:08.070Z,17.80
2022-09-14T20:01:36.916Z,17.80
2022-09-14T20:04:05.214Z,17.70
2022-09-14T20:06:33.962Z,18.10
2022-09-14T20:09:05.477Z,17.70
2022-09-14T20:11:33.537Z,17.70
2022-09-14T20:14:01.936Z,18.00
2022-09-14T20:16:38.800Z,17.60
2022-09-14T20:19:07.544Z,17.60
2022-09-14T20:21:36.456Z,17.60
2022-09-14T20:24:15.682Z,17.50
2022-09-14T20:26:44.846Z,17.50
2022-09-14T20:29:12.002Z,17.50
2022-09-14T20:31:39.682Z,18.10
2022-09-14T20:34:07.273Z,17.50
2022-09-14T20:36:34.402Z,17.50
2022-09-14T20:39:01.937Z,17.40
2022-09-14T20:41:30.809Z,17.30
2022-09-14T20:43:58.162Z,17.30
2022-09-14T20:46:28.987Z,17.20
2022-09-14T20:48:56.451Z,16.80
2022-09-14T20:51:25.087Z,17.20
2022-09-14T20:53:52.702Z,17.20
2022-09-14T20:56:21.135Z,17.20
2022-09-14T20:58:49.007Z,17.10
2022-09-14T21:01:19.828Z,17.70
2022-09-14T21:03:47.860Z,17.10
2022-09-14T21:06:17.173Z,17.10
2022-09-14T21:08:44.671Z,17.10
2022-09-14T21:11:16.819Z,17.10
2022-09-14T21:13:44.530Z,17.10
2022-09-14T21:16:13.423Z,17.00
2022-09-14T21:18:41.402Z,17.00
2022-09-14T21:21:10.232Z,16.90
2022-09-14T21:23:37.408Z,16.90
2022-09-14T21:26:05.591Z,16.90
2022-09-14T21:28:33.373Z,16.90
2022-09-14T21:31:07.967Z,16.80
2022-09-14T21:33:36.159Z,16.80
2022-09-14T21:36:07.474Z,16.80
2022-09-14T21:38:35.313Z,16.70
2022-09-14T21:41:03.141Z,16.80
2022-09-14T21:43:31.506Z,16.70
2022-09-14T21:45:59.483Z,16.80
2022-09-14T21:48:27.485Z,16.70
2022-09-14T21:51:01.449Z,16.70
2022-09-14T21:53:28.567Z,16.60
2022-09-14T21:55:55.629Z,16.60
2022-09-14T21:58:23.070Z,16.60
2022-09-14T22:00:57.496Z,16.60
2022-09-14T22:03:25.062Z,16.40
2022-09-14T22:05:59.116Z,16.50
2022-09-14T22:08:27.001Z,16.50
2022-09-14T22:10:56.837Z,15.80
2022-09-14T22:13:24.301Z,16.50
2022-09-14T22:15:51.620Z,16.50
2022-09-14T22:18:18.954Z,16.50
2022-09-14T22:20:46.027Z,16.50
2022-09-14T22:23:13.367Z,16.50
2022-09-14T22:25:41.320Z,16.40
2022-09-14T22:28:08.497Z,16.40
2022-09-14T22:30:36.363Z,16.30
2022-09-14T22:33:03.555Z,16.50
2022-09-14T22:35:31.040Z,16.40
2022-09-14T22:37:58.266Z,16.50
2022-09-14T22:40:25.591Z,16.40
2022-09-14T22:42:53.208Z,15.60
2022-09-14T22:45:20.693Z,16.40
2022-09-14T22:47:48.067Z,16.40
2022-09-14T22:50:15.237Z,16.40
2022-09-14T22:52:42.363Z,16.50
2022-09-14T22:55:09.674Z,16.50
2022-09-14T22:57:38.243Z,16.40
2022-09-14T23:00:07.655Z,16.40
2022-09-14T23:02:34.879Z,16.40
2022-09-14T23:05:02.344Z,16.40
2022-09-14T23:07:30.671Z,16.40
2022-09-14T23:09:58.791Z,16.40
2022-09-14T23:12:25.979Z,16.40
2022-09-14T23:14:53.092Z,16.40
2022-09-14T23:17:20.164Z,16.40
2022-09-14T23:19:47.219Z,16.30
2022-09-14T23:22:14.485Z,16.40
2022-09-14T23:24:41.915Z,16.80
2022-09-14T23:27:09.045Z,16.40
2022-09-14T23:29:36.124Z,16.40
2022-09-14T23:32:04.105Z,16.30
2022-09-14T23:34:31.403Z,16.30
2022-09-14T23:36:58.610Z,16.40
2022-09-14T23:39:26.618Z,16.30
2022-09-14T23:41:53.771Z,16.30
2022-09-14T23:44:21.084Z,16.30
2022-09-14T23:46:48.257Z,16.30
2022-09-14T23:49:15.573Z,16.30
2022-09-14T23:51:43.376Z,16.30
2022-09-14T23:54:10.727Z,16.30
2022-09-14T23:56:40.714Z,16.20
2022-09-14T23:59:10.043Z,16.30
